Schrunz, Liechtenstein
Current Conditions -  °F | °C
As of 6:20 AM on Sunday 26 Oct 2014 (Local Time) from LSZR Reporting Station
Overcast Overcast  
Wind Chill: 46°   Ceiling: 7000
Heat Index: 46°   Visibility: 6mi
Dew Point: 46°   Wind: 2mph
Humidity: 100%   Direction: 120°ESE
Pressure: 30.27"   Gusts: NA
Location:  47.08°N, 9.93°E
Report Text: LSZR 260420Z AUTO 12002KT 9999 OVC070 08/08 Q1025
Loading
Personal Weather Stations






























Interactive Weather Map
Tropical Storm Tracking
New forecast layout! Learn more

10-Day Weather Forecast

Advertisements
Track Severe Weather on mobile